createdAt,value
2017-07-04T00:01:13.688Z,1011.42
2017-07-04T00:02:10.585Z,1011.46
2017-07-04T00:03:10.513Z,1011.36
2017-07-04T00:04:10.459Z,1011.37
2017-07-04T00:05:10.398Z,1011.35
2017-07-04T00:06:10.326Z,1011.33
2017-07-04T00:07:10.276Z,1011.37
2017-07-04T00:08:10.198Z,1011.32
2017-07-04T00:09:10.146Z,1011.32
2017-07-04T00:10:10.277Z,1011.28
2017-07-04T00:11:10.010Z,1011.25
2017-07-04T00:12:09.948Z,1011.21
2017-07-04T00:13:09.887Z,1011.2
2017-07-04T00:14:09.824Z,1011.21
2017-07-04T00:15:09.759Z,1011.24
2017-07-04T00:16:09.697Z,1011.29
2017-07-04T00:17:09.636Z,1011.31
2017-07-04T00:18:09.572Z,1011.36
2017-07-04T00:19:09.510Z,1011.39
2017-07-04T00:20:09.446Z,1011.42
2017-07-04T00:21:09.384Z,1011.38
2017-07-04T00:22:09.320Z,1011.33
2017-07-04T00:23:09.258Z,1011.35
2017-07-04T00:24:09.197Z,1011.36
2017-07-04T00:25:09.133Z,1011.37
2017-07-04T00:26:09.070Z,1011.32
2017-07-04T00:27:09.010Z,1011.33
2017-07-04T00:28:08.945Z,1011.34
2017-07-04T00:29:08.882Z,1011.35
2017-07-04T00:30:08.820Z,1011.38
2017-07-04T00:31:08.756Z,1011.32
2017-07-04T00:32:08.694Z,1011.33
2017-07-04T00:33:08.630Z,1011.25
2017-07-04T00:34:08.575Z,1011.25
2017-07-04T00:35:08.505Z,1011.27
2017-07-04T00:36:08.443Z,1011.25
2017-07-04T00:37:08.380Z,1011.28
2017-07-04T00:38:08.317Z,1011.28
2017-07-04T00:39:08.255Z,1011.28
2017-07-04T00:40:08.453Z,1011.24
2017-07-04T00:41:08.129Z,1011.23
2017-07-04T00:42:08.079Z,1011.23
2017-07-04T00:43:08.015Z,1011.22
2017-07-04T00:44:07.952Z,1011.26
2017-07-04T00:45:07.880Z,1011.27
2017-07-04T00:46:07.817Z,1011.2
2017-07-04T00:47:07.754Z,1011.18
2017-07-04T00:48:07.691Z,1011.22
2017-07-04T00:49:07.638Z,1011.21
2017-07-04T00:50:07.566Z,1011.22
2017-07-04T00:51:07.513Z,1011.22
2017-07-04T00:52:07.456Z,1011.22
2017-07-04T00:53:07.378Z,1011.19
2017-07-04T00:54:07.314Z,1011.2
2017-07-04T00:55:07.261Z,1011.23
2017-07-04T00:56:07.200Z,1011.23
2017-07-04T00:57:07.126Z,1011.25
2017-07-04T00:58:07.065Z,1011.23
2017-07-04T00:59:07.301Z,1011.29
2017-07-04T01:00:06.958Z,1011.33
2017-07-04T01:01:06.876Z,1011.35
2017-07-04T01:02:06.813Z,1011.35
2017-07-04T01:03:06.750Z,1011.4
2017-07-04T01:04:06.687Z,1011.41
2017-07-04T01:05:06.725Z,1011.41
2017-07-04T01:06:06.562Z,1011.38
2017-07-04T01:07:06.499Z,1011.42
2017-07-04T01:08:06.436Z,1011.44
2017-07-04T01:09:06.384Z,1011.42
2017-07-04T01:10:06.320Z,1011.42
2017-07-04T01:11:06.258Z,1011.43
2017-07-04T01:12:06.195Z,1011.43
2017-07-04T01:13:06.133Z,1011.45
2017-07-04T01:14:06.060Z,1011.39
2017-07-04T01:15:05.997Z,1011.39
2017-07-04T01:16:05.945Z,1011.38
2017-07-04T01:17:05.882Z,1011.4
2017-07-04T01:18:05.809Z,1011.42
2017-07-04T01:19:05.757Z,1011.38
2017-07-04T01:20:05.694Z,1011.41
2017-07-04T01:21:05.620Z,1011.4
2017-07-04T01:22:05.558Z,1011.39
2017-07-04T01:23:05.495Z,1011.43
2017-07-04T01:24:05.443Z,1011.46
2017-07-04T01:25:05.380Z,1011.54
2017-07-04T01:26:05.308Z,1011.57
2017-07-04T01:27:05.244Z,1011.58
2017-07-04T01:28:05.199Z,1011.6
2017-07-04T01:29:05.119Z,1011.53
2017-07-04T01:30:05.056Z,1011.53
2017-07-04T01:31:05.004Z,1011.51
2017-07-04T01:32:04.940Z,1011.54
2017-07-04T01:33:04.868Z,1011.55
2017-07-04T01:34:04.805Z,1011.55
2017-07-04T01:35:04.753Z,1011.48
2017-07-04T01:36:04.691Z,1011.48
2017-07-04T01:37:04.628Z,1011.49
2017-07-04T01:38:04.566Z,1011.47
2017-07-04T01:39:04.502Z,1011.5
2017-07-04T01:40:04.439Z,1011.49
2017-07-04T01:41:04.368Z,1011.48
2017-07-04T01:42:04.306Z,1011.49
2017-07-04T01:43:04.251Z,1011.46
2017-07-04T01:44:04.189Z,1011.47
2017-07-04T01:45:04.116Z,1011.49
2017-07-04T01:46:04.056Z,1011.49
2017-07-04T01:47:03.990Z,1011.5
2017-07-04T01:48:03.929Z,1011.52
2017-07-04T01:49:03.875Z,1011.51
2017-07-04T01:50:03.812Z,1011.53
2017-07-04T01:51:03.750Z,1011.53
2017-07-04T01:52:03.687Z,1011.55
2017-07-04T01:53:03.614Z,1011.54
2017-07-04T01:54:03.560Z,1011.58
2017-07-04T01:55:03.489Z,1011.6
2017-07-04T01:56:03.436Z,1011.59
2017-07-04T01:57:03.372Z,1011.6
2017-07-04T01:58:03.310Z,1011.63
2017-07-04T01:59:03.247Z,1011.62
2017-07-04T02:00:03.184Z,1011.69
2017-07-04T02:01:03.111Z,1011.65
2017-07-04T02:02:03.059Z,1011.62
2017-07-04T02:03:02.997Z,1011.65
2017-07-04T02:04:02.934Z,1011.63
2017-07-04T02:05:03.185Z,1011.63
2017-07-04T02:06:02.798Z,1011.63
2017-07-04T02:07:02.746Z,1011.68
2017-07-04T02:08:02.682Z,1011.66
2017-07-04T02:09:02.621Z,1011.62
2017-07-04T02:10:02.949Z,1011.63
2017-07-04T02:11:02.495Z,1011.63
2017-07-04T02:12:02.421Z,1011.62
2017-07-04T02:13:02.359Z,1011.65
2017-07-04T02:14:02.306Z,1011.66
2017-07-04T02:15:02.484Z,1011.66
2017-07-04T02:16:02.180Z,1011.68
2017-07-04T02:17:02.110Z,1011.63
2017-07-04T02:18:02.046Z,1011.61
2017-07-04T02:19:01.981Z,1011.6
2017-07-04T02:20:02.180Z,1011.59
2017-07-04T02:21:01.857Z,1011.62
2017-07-04T02:22:01.804Z,1011.57
2017-07-04T02:23:01.740Z,1011.57
2017-07-04T02:24:01.681Z,1011.57
2017-07-04T02:25:01.606Z,1011.58
2017-07-04T02:26:01.554Z,1011.62
2017-07-04T02:27:01.480Z,1011.59
2017-07-04T02:28:01.427Z,1011.56
2017-07-04T02:29:01.365Z,1011.59
2017-07-04T02:30:01.301Z,1011.57
2017-07-04T02:31:01.528Z,1011.57
2017-07-04T02:32:01.200Z,1011.6
2017-07-04T02:33:01.113Z,1011.64
2017-07-04T02:34:01.040Z,1011.61
2017-07-04T02:35:00.987Z,1011.59
2017-07-04T02:36:00.924Z,1011.57
2017-07-04T02:37:00.863Z,1011.6
2017-07-04T02:38:00.789Z,1011.6
2017-07-04T02:39:00.736Z,1011.61
2017-07-04T02:40:00.664Z,1011.64
2017-07-04T02:41:00.610Z,1011.59
2017-07-04T02:42:00.538Z,1011.63
2017-07-04T02:43:00.477Z,1011.56
2017-07-04T02:44:00.412Z,1011.54
2017-07-04T02:45:00.352Z,1011.58
2017-07-04T02:46:00.287Z,1011.59
2017-07-04T02:47:00.224Z,1011.6
2017-07-04T02:48:00.171Z,1011.61
2017-07-04T02:49:00.098Z,1011.61
2017-07-04T02:50:00.036Z,1011.59
2017-07-04T02:50:59.983Z,1011.62
2017-07-04T02:51:59.919Z,1011.62
2017-07-04T02:52:59.848Z,1011.6
2017-07-04T02:53:59.784Z,1011.63
2017-07-04T02:54:59.722Z,1011.62
2017-07-04T02:55:59.658Z,1011.63
2017-07-04T02:56:59.605Z,1011.6
2017-07-04T02:57:59.533Z,1011.63
2017-07-04T02:58:59.471Z,1011.64
2017-07-04T02:59:59.419Z,1011.63
2017-07-04T03:00:59.596Z,1011.59
2017-07-04T03:01:59.283Z,1011.62
2017-07-04T03:02:59.220Z,1011.61
2017-07-04T03:03:59.166Z,1011.6
2017-07-04T03:04:59.103Z,1011.61
2017-07-04T03:05:59.032Z,1011.64
2017-07-04T03:06:58.967Z,1011.67
2017-07-04T03:07:58.905Z,1011.66
2017-07-04T03:08:58.842Z,1011.72
2017-07-04T03:09:58.789Z,1011.77
2017-07-04T03:10:58.717Z,1011.75
2017-07-04T03:11:58.655Z,1011.7
2017-07-04T03:12:58.594Z,1011.69
2017-07-04T03:13:58.528Z,1011.68
2017-07-04T03:14:58.466Z,1011.72
2017-07-04T03:15:58.413Z,1011.74
2017-07-04T03:16:58.341Z,1011.75
2017-07-04T03:17:58.277Z,1011.75
2017-07-04T03:18:58.220Z,1011.74
2017-07-04T03:19:58.162Z,1011.77
2017-07-04T03:20:58.098Z,1011.78
2017-07-04T03:21:58.036Z,1011.75
2017-07-04T03:22:57.991Z,1011.72
2017-07-04T03:23:57.900Z,1011.72
2017-07-04T03:24:57.847Z,1011.75
2017-07-04T03:25:57.785Z,1011.74
2017-07-04T03:26:57.722Z,1011.78
2017-07-04T03:27:57.650Z,1011.77
2017-07-04T03:28:57.586Z,1011.83
2017-07-04T03:29:57.533Z,1011.78
2017-07-04T03:30:57.460Z,1011.72
2017-07-04T03:31:57.409Z,1011.75
2017-07-04T03:32:57.345Z,1011.74
2017-07-04T03:33:57.286Z,1011.72
2017-07-04T03:34:57.219Z,1011.7
2017-07-04T03:35:57.160Z,1011.7
2017-07-04T03:36:57.093Z,1011.77
2017-07-04T03:37:57.021Z,1011.75
2017-07-04T03:38:56.958Z,1011.78
2017-07-04T03:39:56.905Z,1011.79
2017-07-04T03:40:56.831Z,1011.83
2017-07-04T03:41:56.789Z,1011.84
2017-07-04T03:42:56.716Z,1011.84
2017-07-04T03:43:56.653Z,1011.85
2017-07-04T03:44:56.592Z,1011.87
2017-07-04T03:45:56.528Z,1011.87
2017-07-04T03:46:56.454Z,1011.9
2017-07-04T03:47:56.392Z,1011.88
2017-07-04T03:48:56.330Z,1011.92
2017-07-04T03:49:56.268Z,1011.93
2017-07-04T03:50:56.213Z,1011.89
2017-07-04T03:51:56.150Z,1011.92
2017-07-04T03:52:56.078Z,1011.93
2017-07-04T03:53:56.014Z,1011.91
2017-07-04T03:54:55.958Z,1011.9
2017-07-04T03:55:55.889Z,1011.94
2017-07-04T03:56:55.826Z,1011.96
2017-07-04T03:57:55.912Z,1012
2017-07-04T03:58:55.710Z,1011.95
2017-07-04T03:59:55.641Z,1011.95
2017-07-04T04:00:55.588Z,1011.94
2017-07-04T04:01:55.529Z,1011.95
2017-07-04T04:02:55.758Z,1011.95
2017-07-04T04:03:55.387Z,1011.92
2017-07-04T04:04:55.338Z,1011.94
2017-07-04T04:05:55.268Z,1011.93
2017-07-04T04:06:55.207Z,1011.9
2017-07-04T04:07:55.134Z,1011.93
2017-07-04T04:08:55.072Z,1011.94
2017-07-04T04:09:55.018Z,1011.97
2017-07-04T04:10:54.946Z,1011.92
2017-07-04T04:11:54.892Z,1011.96
2017-07-04T04:12:54.828Z,1011.97
2017-07-04T04:13:54.766Z,1011.99
2017-07-04T04:14:54.694Z,1012.02
2017-07-04T04:15:54.630Z,1012.03
2017-07-04T04:16:54.578Z,1012.03
2017-07-04T04:17:54.514Z,1012
2017-07-04T04:18:54.451Z,1011.99
2017-07-04T04:19:54.388Z,1012.01
2017-07-04T04:20:54.317Z,1012.02
2017-07-04T04:21:54.262Z,1012.05
2017-07-04T04:22:54.200Z,1012.07
2017-07-04T04:23:54.436Z,1012.07
2017-07-04T04:24:54.075Z,1012.11
2017-07-04T04:25:54.001Z,1012.11
2017-07-04T04:26:53.937Z,1012.12
2017-07-04T04:27:53.885Z,1012.15
2017-07-04T04:28:53.823Z,1012.17
2017-07-04T04:29:53.750Z,1012.18
2017-07-04T04:30:53.696Z,1012.16
2017-07-04T04:31:53.624Z,1012.23
2017-07-04T04:32:53.571Z,1012.21
2017-07-04T04:33:53.509Z,1012.16
2017-07-04T04:34:53.446Z,1012.2
2017-07-04T04:35:53.371Z,1012.17
2017-07-04T04:36:53.309Z,1012.16
2017-07-04T04:37:53.247Z,1012.17
2017-07-04T04:38:53.184Z,1012.17
2017-07-04T04:39:53.131Z,1012.2
2017-07-04T04:40:53.062Z,1012.22
2017-07-04T04:41:53.004Z,1012.23
2017-07-04T04:42:52.944Z,1012.2
2017-07-04T04:43:52.882Z,1012.17
2017-07-04T04:44:52.816Z,1012.19
2017-07-04T04:45:52.753Z,1012.26
2017-07-04T04:46:52.693Z,1012.23
2017-07-04T04:47:52.628Z,1012.3
2017-07-04T04:48:52.555Z,1012.28
2017-07-04T04:49:52.642Z,1012.24
2017-07-04T04:50:52.590Z,1012.27
2017-07-04T04:51:52.369Z,1012.29
2017-07-04T04:52:52.314Z,1012.28
2017-07-04T04:53:52.251Z,1012.39
2017-07-04T04:54:52.481Z,1012.35
2017-07-04T04:55:52.115Z,1012.33
2017-07-04T04:56:52.055Z,1012.28
2017-07-04T04:57:52.000Z,1012.29
2017-07-04T04:58:51.937Z,1012.37
2017-07-04T04:59:51.863Z,1012.39
2017-07-04T05:00:51.961Z,1012.39
2017-07-04T05:01:51.748Z,1012.36
2017-07-04T05:02:51.688Z,1012.31
2017-07-04T05:03:51.614Z,1012.35
2017-07-04T05:04:51.560Z,1012.41
2017-07-04T05:05:51.498Z,1012.42
2017-07-04T05:06:51.433Z,1012.41
2017-07-04T05:07:51.362Z,1012.42
2017-07-04T05:08:51.308Z,1012.47
2017-07-04T05:09:51.245Z,1012.47
2017-07-04T05:10:51.173Z,1012.46
2017-07-04T05:11:51.119Z,1012.5
2017-07-04T05:12:51.046Z,1012.52
2017-07-04T05:13:50.995Z,1012.48
2017-07-04T05:14:50.922Z,1012.52
2017-07-04T05:15:51.010Z,1012.55
2017-07-04T05:16:50.798Z,1012.62
2017-07-04T05:17:50.733Z,1012.59
2017-07-04T05:18:50.670Z,1012.6
2017-07-04T05:19:50.607Z,1012.58
2017-07-04T05:20:50.706Z,1012.56
2017-07-04T05:21:50.481Z,1012.56
2017-07-04T05:22:50.418Z,1012.55
2017-07-04T05:23:50.367Z,1012.55
2017-07-04T05:24:50.293Z,1012.55
2017-07-04T05:25:50.388Z,1012.52
2017-07-04T05:26:50.177Z,1012.57
2017-07-04T05:27:50.106Z,1012.57
2017-07-04T05:28:50.040Z,1012.63
2017-07-04T05:29:49.977Z,1012.61
2017-07-04T05:30:50.075Z,1012.59
2017-07-04T05:31:49.853Z,1012.62
2017-07-04T05:32:49.790Z,1012.58
2017-07-04T05:33:49.737Z,1012.6
2017-07-04T05:34:49.674Z,1012.65
2017-07-04T05:35:49.711Z,1012.72
2017-07-04T05:36:49.538Z,1012.7
2017-07-04T05:37:49.484Z,1012.63
2017-07-04T05:38:49.412Z,1012.7
2017-07-04T05:39:49.348Z,1012.68
2017-07-04T05:40:49.596Z,1012.71
2017-07-04T05:41:49.384Z,1012.73
2017-07-04T05:42:49.170Z,1012.72
2017-07-04T05:43:49.097Z,1012.72
2017-07-04T05:44:49.034Z,1012.71
2017-07-04T05:45:49.082Z,1012.71
2017-07-04T05:46:48.911Z,1012.7
2017-07-04T05:47:48.856Z,1012.75
2017-07-04T05:48:48.792Z,1012.77
2017-07-04T05:49:48.730Z,1012.75
2017-07-04T05:50:48.657Z,1012.78
2017-07-04T05:51:48.604Z,1012.76
2017-07-04T05:52:48.533Z,1012.73
2017-07-04T05:53:48.470Z,1012.78
2017-07-04T05:54:48.416Z,1012.79
2017-07-04T05:55:48.492Z,1012.83
2017-07-04T05:56:48.291Z,1012.8
2017-07-04T05:57:48.229Z,1012.8
2017-07-04T05:58:48.155Z,1012.85
2017-07-04T05:59:48.098Z,1012.88
2017-07-04T06:00:48.189Z,1012.9
2017-07-04T06:01:48.130Z,1012.91
2017-07-04T06:02:47.945Z,1012.95
2017-07-04T06:03:47.840Z,1012.91
2017-07-04T06:04:47.799Z,1012.93
2017-07-04T06:05:47.884Z,1012.92
2017-07-04T06:06:47.652Z,1012.88
2017-07-04T06:07:47.749Z,1012.91
2017-07-04T06:08:47.526Z,1012.94
2017-07-04T06:09:47.476Z,1012.93
2017-07-04T06:10:47.560Z,1012.9
2017-07-04T06:11:47.337Z,1012.93
2017-07-04T06:12:47.536Z,1012.93
2017-07-04T06:13:47.211Z,1012.96
2017-07-04T06:14:47.159Z,1012.94
2017-07-04T06:15:47.347Z,1012.98
2017-07-04T06:16:47.023Z,1012.99
2017-07-04T06:17:46.959Z,1013.02
2017-07-04T06:18:46.907Z,1013.09
2017-07-04T06:19:46.834Z,1013.05
2017-07-04T06:20:47.021Z,1012.99
2017-07-04T06:21:46.719Z,1013
2017-07-04T06:22:46.657Z,1012.95
2017-07-04T06:23:46.594Z,1012.94
2017-07-04T06:24:46.530Z,1012.98
2017-07-04T06:25:46.618Z,1013.04
2017-07-04T06:26:46.405Z,1013.01
2017-07-04T06:27:46.342Z,1012.96
2017-07-04T06:28:46.280Z,1012.99
2017-07-04T06:29:46.218Z,1013.02
2017-07-04T06:30:46.294Z,1013.03
2017-07-04T06:31:46.090Z,1013.04
2017-07-04T06:32:46.018Z,1013
2017-07-04T06:34:45.892Z,1013.07
2017-07-04T06:35:45.828Z,1013.06
2017-07-04T06:36:45.767Z,1013.08
2017-07-04T06:37:45.704Z,1013.07
2017-07-04T06:38:45.651Z,1013.07
2017-07-04T06:39:45.587Z,1013.05
2017-07-04T06:40:45.725Z,1013.04
2017-07-04T06:41:45.462Z,1013.07
2017-07-04T06:42:45.414Z,1013.04
2017-07-04T06:43:45.326Z,1013.07
2017-07-04T06:44:45.275Z,1013.06
2017-07-04T06:45:45.460Z,1013.02
2017-07-04T06:46:45.137Z,1013.03
2017-07-04T06:47:45.085Z,1013.02
2017-07-04T06:48:45.013Z,1013.1
2017-07-04T06:49:44.949Z,1013.03
2017-07-04T06:50:45.045Z,1013.06
2017-07-04T06:51:44.825Z,1013.06
2017-07-04T06:52:44.773Z,1013.07
2017-07-04T06:53:44.697Z,1013
2017-07-04T06:54:44.637Z,1013.06
2017-07-04T06:55:44.883Z,1013.1
2017-07-04T06:56:44.520Z,1013.14
2017-07-04T06:57:44.448Z,1013.1
2017-07-04T06:58:44.383Z,1013.1
2017-07-04T06:59:44.320Z,1013.11
2017-07-04T07:00:44.367Z,1013.14
2017-07-04T07:01:44.194Z,1013.17
2017-07-04T07:02:53.717Z,1013.18
2017-07-04T07:03:44.079Z,1013.23
2017-07-04T07:04:44.008Z,1013.25
2017-07-04T07:05:43.953Z,1013.27
2017-07-04T07:06:43.890Z,1013.28
2017-07-04T07:07:43.820Z,1013.28
2017-07-04T07:08:43.765Z,1013.26
2017-07-04T07:09:43.701Z,1013.25
2017-07-04T07:10:43.939Z,1013.24
2017-07-04T07:11:43.565Z,1013.23
2017-07-04T07:12:43.513Z,1013.24
2017-07-04T07:13:43.450Z,1013.21
2017-07-04T07:14:43.378Z,1013.24
2017-07-04T07:15:43.316Z,1013.29
2017-07-04T07:16:43.252Z,1013.24
2017-07-04T07:17:43.201Z,1013.24
2017-07-04T07:18:43.136Z,1013.32
2017-07-04T07:19:43.066Z,1013.38
2017-07-04T07:20:43.150Z,1013.38
2017-07-04T07:21:42.937Z,1013.36
2017-07-04T07:22:42.875Z,1013.37
2017-07-04T07:23:42.824Z,1013.38
2017-07-04T07:24:42.749Z,1013.37
2017-07-04T07:25:42.936Z,1013.4
2017-07-04T07:26:42.634Z,1013.43
2017-07-04T07:27:42.560Z,1013.44
2017-07-04T07:28:42.498Z,1013.43
2017-07-04T07:29:42.446Z,1013.42
2017-07-04T07:30:42.638Z,1013.41
2017-07-04T07:31:42.570Z,1013.42
2017-07-04T07:32:42.248Z,1013.49
2017-07-04T07:33:42.194Z,1013.45
2017-07-04T07:34:42.135Z,1013.49
2017-07-04T07:35:42.218Z,1013.46
2017-07-04T07:36:42.004Z,1013.47
2017-07-04T07:37:41.941Z,1013.41
2017-07-04T07:38:41.871Z,1013.44
2017-07-04T07:39:41.817Z,1013.52
2017-07-04T07:40:41.907Z,1013.46
2017-07-04T07:41:41.681Z,1013.53
2017-07-04T07:42:41.628Z,1013.49
2017-07-04T07:43:41.567Z,1013.54
2017-07-04T07:44:41.502Z,1013.54
2017-07-04T07:45:41.530Z,1013.58
2017-07-04T07:46:41.378Z,1013.54
2017-07-04T07:47:41.313Z,1013.5
2017-07-04T07:48:41.241Z,1013.52
2017-07-04T07:49:41.188Z,1013.52
2017-07-04T07:50:41.236Z,1013.59
2017-07-04T07:51:41.064Z,1013.51
2017-07-04T07:52:40.990Z,1013.49
2017-07-04T07:53:40.928Z,1013.52
2017-07-04T07:54:40.876Z,1013.5
2017-07-04T07:55:40.911Z,1013.52
2017-07-04T07:56:40.750Z,1013.54
2017-07-04T07:57:40.838Z,1013.52
2017-07-04T07:58:40.618Z,1013.53
2017-07-04T07:59:40.563Z,1013.5
2017-07-04T08:00:40.561Z,1013.52
2017-07-04T08:01:40.437Z,1013.58
2017-07-04T08:02:40.723Z,1013.59
2017-07-04T08:03:40.310Z,1013.59
2017-07-04T08:04:40.248Z,1013.57
2017-07-04T08:05:40.173Z,1013.58
2017-07-04T08:06:40.111Z,1013.6
2017-07-04T08:07:40.048Z,1013.65
2017-07-04T08:08:39.996Z,1013.65
2017-07-04T08:09:39.922Z,1013.68
2017-07-04T08:10:40.262Z,1013.66
2017-07-04T08:11:39.808Z,1013.66
2017-07-04T08:12:39.735Z,1013.65
2017-07-04T08:13:39.682Z,1013.59
2017-07-04T08:14:39.618Z,1013.54
2017-07-04T08:15:39.707Z,1013.58
2017-07-04T08:16:39.493Z,1013.53
2017-07-04T08:17:39.420Z,1013.55
2017-07-04T08:18:39.368Z,1013.51
2017-07-04T08:19:39.296Z,1013.51
2017-07-04T08:20:39.232Z,1013.53
2017-07-04T08:21:39.180Z,1013.51
2017-07-04T08:22:39.117Z,1013.58
2017-07-04T08:23:39.045Z,1013.55
2017-07-04T08:24:38.995Z,1013.57
2017-07-04T08:25:38.921Z,1013.62
2017-07-04T08:26:38.868Z,1013.6
2017-07-04T08:27:38.803Z,1013.6
2017-07-04T08:28:38.741Z,1013.61
2017-07-04T08:29:38.675Z,1013.62
2017-07-04T08:30:38.615Z,1013.66
2017-07-04T08:31:38.542Z,1013.65
2017-07-04T08:32:38.480Z,1013.62
2017-07-04T08:33:38.428Z,1013.67
2017-07-04T08:34:38.371Z,1013.65
2017-07-04T08:35:38.392Z,1013.7
2017-07-04T08:36:38.239Z,1013.72
2017-07-04T08:37:38.179Z,1013.76
2017-07-04T08:38:38.111Z,1013.71
2017-07-04T08:39:38.052Z,1013.72
2017-07-04T08:40:37.988Z,1013.74
2017-07-04T08:41:37.917Z,1013.74
2017-07-04T08:42:37.864Z,1013.77
2017-07-04T08:43:37.791Z,1013.8
2017-07-04T08:44:37.729Z,1013.79
2017-07-04T08:45:37.926Z,1013.76
2017-07-04T08:46:37.602Z,1013.75
2017-07-04T08:47:37.540Z,1013.7
2017-07-04T08:48:37.488Z,1013.69
2017-07-04T08:49:37.425Z,1013.75
2017-07-04T08:50:37.353Z,1013.82
2017-07-04T08:51:37.300Z,1013.79
2017-07-04T08:52:37.229Z,1013.79
2017-07-04T08:53:37.176Z,1013.8
2017-07-04T08:54:37.106Z,1013.78
2017-07-04T08:55:37.040Z,1013.86
2017-07-04T08:56:36.990Z,1013.86
2017-07-04T08:57:36.916Z,1013.82
2017-07-04T08:58:36.863Z,1013.82
2017-07-04T08:59:36.801Z,1013.86
2017-07-04T09:00:36.737Z,1013.83
2017-07-04T09:01:36.674Z,1013.86
2017-07-04T09:02:36.602Z,1013.82
2017-07-04T09:03:36.551Z,1013.82
2017-07-04T09:04:36.487Z,1013.84
2017-07-04T09:05:36.665Z,1013.85
2017-07-04T09:06:36.363Z,1013.89
2017-07-04T09:07:36.293Z,1013.9
2017-07-04T09:08:36.238Z,1013.85
2017-07-04T09:09:36.166Z,1013.8
2017-07-04T09:10:36.113Z,1013.88
2017-07-04T09:11:36.041Z,1013.92
2017-07-04T09:12:35.981Z,1013.91
2017-07-04T09:13:35.915Z,1013.92
2017-07-04T09:14:35.854Z,1013.91
2017-07-04T09:15:35.800Z,1013.94
2017-07-04T09:16:35.738Z,1013.99
2017-07-04T09:17:35.666Z,1013.91
2017-07-04T09:18:35.604Z,1013.94
2017-07-04T09:19:35.550Z,1013.95
2017-07-04T09:20:35.478Z,1013.9
2017-07-04T09:21:35.417Z,1013.98
2017-07-04T09:22:35.352Z,1013.97
2017-07-04T09:23:35.304Z,1013.87
2017-07-04T09:24:35.238Z,1013.91
2017-07-04T09:25:35.317Z,1013.92
2017-07-04T09:26:35.116Z,1013.88
2017-07-04T09:27:35.041Z,1013.94
2017-07-04T09:28:34.979Z,1013.9
2017-07-04T09:29:34.916Z,1013.85
2017-07-04T09:30:35.115Z,1013.87
2017-07-04T09:31:34.802Z,1013.9
2017-07-04T09:32:34.741Z,1013.91
2017-07-04T09:33:34.674Z,1013.96
2017-07-04T09:34:34.615Z,1013.99
2017-07-04T09:35:34.543Z,1013.95
2017-07-04T09:36:34.483Z,1013.97
2017-07-04T09:37:34.417Z,1013.92
2017-07-04T09:38:34.366Z,1013.94
2017-07-04T09:39:34.304Z,1013.95
2017-07-04T09:40:34.490Z,1014.02
2017-07-04T09:41:34.178Z,1013.97
2017-07-04T09:42:34.106Z,1013.98
2017-07-04T09:43:34.054Z,1014.04
2017-07-04T09:44:33.991Z,1014.03
2017-07-04T09:45:33.928Z,1014.02
2017-07-04T09:46:33.866Z,1013.98
2017-07-04T09:47:33.794Z,1014.02
2017-07-04T09:48:33.730Z,1014.02
2017-07-04T09:49:33.670Z,1014.04
2017-07-04T09:50:33.608Z,1014
2017-07-04T09:51:33.542Z,1014.01
2017-07-04T09:52:33.491Z,1014.02
2017-07-04T09:53:33.438Z,1014.03
2017-07-04T09:54:33.367Z,1014.02
2017-07-04T09:55:33.294Z,1013.99
2017-07-04T09:56:33.232Z,1014
2017-07-04T09:57:33.170Z,1014.01
2017-07-04T09:58:33.108Z,1014.04
2017-07-04T09:59:33.055Z,1014.08
2017-07-04T10:00:33.232Z,1014.1
2017-07-04T10:01:32.919Z,1014.05
2017-07-04T10:02:32.857Z,1014.02
2017-07-04T10:03:32.805Z,1014.07
2017-07-04T10:04:32.733Z,1014.08
2017-07-04T10:05:32.932Z,1014.05
2017-07-04T10:06:32.608Z,1014.1
2017-07-04T10:07:32.555Z,1014.11
2017-07-04T10:08:32.483Z,1014.12
2017-07-04T10:09:32.422Z,1014.06
2017-07-04T10:10:32.509Z,1014.14
2017-07-04T10:11:32.305Z,1014.12
2017-07-04T10:12:32.235Z,1014.16
2017-07-04T10:13:32.182Z,1014.12
2017-07-04T10:14:32.110Z,1014.09
2017-07-04T10:15:32.056Z,1014.09
2017-07-04T10:16:31.996Z,1014.13
2017-07-04T10:17:31.921Z,1014.15
2017-07-04T10:18:31.859Z,1014.18
2017-07-04T10:19:31.806Z,1014.19
2017-07-04T10:20:31.894Z,1014.21
2017-07-04T10:21:31.683Z,1014.19
2017-07-04T10:22:31.611Z,1014.19
2017-07-04T10:23:31.547Z,1014.21
2017-07-04T10:24:31.485Z,1014.21
2017-07-04T10:25:31.600Z,1014.18
2017-07-04T10:26:31.378Z,1014.17
2017-07-04T10:27:31.299Z,1014.16
2017-07-04T10:28:31.245Z,1014.13
2017-07-04T10:29:31.173Z,1014.15
2017-07-04T10:30:31.112Z,1014.05
2017-07-04T10:31:31.049Z,1014.11
2017-07-04T10:32:30.986Z,1014.12
2017-07-04T10:33:30.924Z,1014.11
2017-07-04T10:34:30.871Z,1014.11
2017-07-04T10:35:31.050Z,1014.09
2017-07-04T10:36:30.747Z,1014.09
2017-07-04T10:37:30.684Z,1014.12
2017-07-04T10:38:30.612Z,1014.13
2017-07-04T10:39:30.549Z,1014.1
2017-07-04T10:40:30.748Z,1014.19
2017-07-04T10:41:30.439Z,1014.09
2017-07-04T10:42:30.366Z,1014.18
2017-07-04T10:43:30.310Z,1014.15
2017-07-04T10:44:30.237Z,1014.13
2017-07-04T10:45:30.177Z,1014.16
2017-07-04T10:46:30.113Z,1014.13
2017-07-04T10:47:30.051Z,1014.15
2017-07-04T10:48:30.000Z,1014.19
2017-07-04T10:49:29.936Z,1014.17
2017-07-04T10:50:29.864Z,1014.15
2017-07-04T10:51:29.812Z,1014.16
2017-07-04T10:52:29.740Z,1014.13
2017-07-04T10:53:29.677Z,1014.12
2017-07-04T10:54:29.614Z,1014.12
2017-07-04T10:55:29.575Z,1014.11
2017-07-04T10:56:29.504Z,1014.11
2017-07-04T10:57:29.437Z,1014.14
2017-07-04T10:58:29.366Z,1014.18
2017-07-04T10:59:29.302Z,1014.15
2017-07-04T11:00:29.261Z,1014.21
2017-07-04T11:01:29.177Z,1014.15
2017-07-04T11:02:29.125Z,1014.15
2017-07-04T11:03:32.028Z,1014.11
2017-07-04T11:04:28.992Z,1014.12
2017-07-04T11:05:29.079Z,1014.12
2017-07-04T11:06:28.877Z,1014.09
2017-07-04T11:07:28.806Z,1014.04
2017-07-04T11:08:28.742Z,1014.06
2017-07-04T11:09:28.690Z,1014.07
2017-07-04T11:10:28.619Z,1014.02
2017-07-04T11:11:28.556Z,1014
2017-07-04T11:12:28.503Z,1014.03
2017-07-04T11:13:28.440Z,1014.05
2017-07-04T11:14:28.383Z,1014.03
2017-07-04T11:15:28.465Z,1014.05
2017-07-04T11:16:28.256Z,1014.08
2017-07-04T11:17:28.190Z,1014.15
2017-07-04T11:18:28.129Z,1014.04
2017-07-04T11:19:28.055Z,1014.09
2017-07-04T11:20:28.153Z,1014.04
2017-07-04T11:21:27.931Z,1014.08
2017-07-04T11:22:27.879Z,1014.11
2017-07-04T11:23:27.818Z,1014.13
2017-07-04T11:24:27.754Z,1014.18
2017-07-04T11:25:27.831Z,1014.11
2017-07-04T11:26:27.636Z,1014.12
2017-07-04T11:27:27.558Z,1014.17
2017-07-04T11:28:27.505Z,1014.11
2017-07-04T11:29:27.434Z,1014.02
2017-07-04T11:30:27.380Z,1014.09
2017-07-04T11:31:27.327Z,1014.08
2017-07-04T11:32:27.256Z,1014.13
2017-07-04T11:33:27.194Z,1014.07
2017-07-04T11:34:27.123Z,1014.07
2017-07-04T11:35:27.067Z,1014.08
2017-07-04T11:36:26.996Z,1014.09
2017-07-04T11:37:26.936Z,1014.06
2017-07-04T11:38:26.881Z,1014.06
2017-07-04T11:39:26.820Z,1014.09
2017-07-04T11:40:26.847Z,1014.05
2017-07-04T11:41:26.694Z,1014.09
2017-07-04T11:42:26.621Z,1014.14
2017-07-04T11:43:26.559Z,1014.15
2017-07-04T11:44:26.508Z,1014.11
2017-07-04T11:45:26.745Z,1014.05
2017-07-04T11:46:26.376Z,1014.05
2017-07-04T11:47:26.320Z,1014.05
2017-07-04T11:48:26.257Z,1014.14
2017-07-04T11:49:26.195Z,1014.14
2017-07-04T11:50:26.280Z,1014.1
2017-07-04T11:51:26.061Z,1014.13
2017-07-04T11:52:25.996Z,1014.14
2017-07-04T11:53:25.946Z,1014.14
2017-07-04T11:54:25.874Z,1014.1
2017-07-04T11:55:25.821Z,1014.14
2017-07-04T11:56:25.757Z,1014.14
2017-07-04T11:57:25.695Z,1014.15
2017-07-04T11:58:25.623Z,1014.18
2017-07-04T11:59:25.562Z,1014.14
2017-07-04T12:00:25.653Z,1014.13
2017-07-04T12:01:25.436Z,1014.17
2017-07-04T12:02:25.377Z,1014.22
2017-07-04T12:03:25.311Z,1014.16
2017-07-04T12:04:25.249Z,1014.19
2017-07-04T12:05:25.289Z,1014.21
2017-07-04T12:06:25.134Z,1014.16
2017-07-04T12:07:25.062Z,1014.17
2017-07-04T12:08:25.010Z,1014.16
2017-07-04T12:09:24.954Z,1014.32